createdAt,value
2023-01-08T00:00:20.611Z,987.56
2023-01-08T00:01:20.554Z,987.59
2023-01-08T00:02:20.535Z,987.56
2023-01-08T00:03:20.601Z,987.56
2023-01-08T00:04:20.524Z,987.50
2023-01-08T00:05:20.664Z,987.53
2023-01-08T00:06:20.508Z,987.50
2023-01-08T00:07:20.509Z,987.49
2023-01-08T00:08:20.500Z,987.53
2023-01-08T00:09:20.603Z,987.55
2023-01-08T00:10:20.518Z,987.50
2023-01-08T00:11:20.475Z,987.55
2023-01-08T00:12:20.470Z,987.58
2023-01-08T00:13:20.461Z,987.58
2023-01-08T00:14:20.501Z,987.58
2023-01-08T00:15:20.452Z,987.63
2023-01-08T00:16:20.540Z,987.59
2023-01-08T00:17:20.435Z,987.53
2023-01-08T00:18:20.501Z,987.59
2023-01-08T00:19:20.419Z,987.52
2023-01-08T00:20:20.434Z,987.54
2023-01-08T00:21:20.400Z,987.48
2023-01-08T00:22:20.553Z,987.45
2023-01-08T00:23:20.388Z,987.41
2023-01-08T00:24:20.374Z,987.40
2023-01-08T00:25:20.467Z,987.42
2023-01-08T00:26:20.350Z,987.39
2023-01-08T00:27:20.372Z,987.53
2023-01-08T00:28:20.343Z,987.45
2023-01-08T00:29:20.323Z,987.41
2023-01-08T00:30:20.356Z,987.38
2023-01-08T00:31:20.378Z,987.39
2023-01-08T00:32:20.371Z,987.36
2023-01-08T00:33:20.346Z,987.43
2023-01-08T00:34:20.295Z,987.32
2023-01-08T00:35:20.320Z,987.38
2023-01-08T00:36:20.305Z,987.29
2023-01-08T00:37:20.277Z,987.29
2023-01-08T00:38:20.271Z,987.28
2023-01-08T00:39:20.259Z,987.26
2023-01-08T00:40:20.271Z,987.22
2023-01-08T00:41:20.384Z,987.22
2023-01-08T00:42:20.235Z,987.21
2023-01-08T00:43:20.217Z,987.07
2023-01-08T00:44:20.214Z,987.05
2023-01-08T00:45:20.236Z,987.06
2023-01-08T00:46:20.297Z,987.05
2023-01-08T00:47:20.227Z,987.04
2023-01-08T00:48:20.233Z,986.95
2023-01-08T00:49:20.176Z,986.94
2023-01-08T00:50:20.200Z,986.95
2023-01-08T00:51:20.166Z,986.92
2023-01-08T00:52:20.158Z,986.93
2023-01-08T00:53:20.135Z,986.88
2023-01-08T00:54:20.138Z,986.82
2023-01-08T00:55:20.146Z,986.90
2023-01-08T00:56:20.139Z,986.87
2023-01-08T00:57:20.200Z,986.86
2023-01-08T00:58:20.103Z,986.85
2023-01-08T00:59:20.105Z,986.92
2023-01-08T01:00:20.115Z,986.78
2023-01-08T01:01:20.165Z,986.90
2023-01-08T01:02:20.133Z,986.90
2023-01-08T01:03:20.079Z,986.83
2023-01-08T01:04:20.110Z,986.90
2023-01-08T01:05:20.076Z,986.71
2023-01-08T01:06:20.087Z,986.83
2023-01-08T01:07:20.053Z,986.76
2023-01-08T01:08:20.021Z,986.71
2023-01-08T01:09:20.022Z,986.65
2023-01-08T01:10:20.038Z,986.70
2023-01-08T01:11:20.010Z,986.66
2023-01-08T01:12:20.005Z,986.71
2023-01-08T01:13:20.060Z,986.74
2023-01-08T01:14:19.984Z,986.60
2023-01-08T01:15:19.969Z,986.64
2023-01-08T01:16:20.037Z,986.58
2023-01-08T01:17:19.968Z,986.63
2023-01-08T01:18:19.944Z,986.58
2023-01-08T01:19:19.938Z,986.73
2023-01-08T01:20:19.937Z,986.70
2023-01-08T01:21:19.941Z,986.65
2023-01-08T01:22:19.918Z,986.67
2023-01-08T01:23:19.919Z,986.67
2023-01-08T01:24:19.909Z,986.62
2023-01-08T01:25:19.888Z,986.69
2023-01-08T01:26:19.964Z,986.66
2023-01-08T01:27:19.864Z,986.72
2023-01-08T01:28:19.856Z,986.68
2023-01-08T01:29:19.935Z,986.69
2023-01-08T01:30:20.084Z,986.68
2023-01-08T01:31:19.887Z,986.76
2023-01-08T01:32:19.833Z,986.66
2023-01-08T01:33:19.827Z,986.79
2023-01-08T01:34:19.835Z,986.78
2023-01-08T01:35:19.807Z,986.78
2023-01-08T01:36:19.825Z,986.79
2023-01-08T01:37:19.800Z,986.87
2023-01-08T01:38:19.781Z,986.82
2023-01-08T01:39:19.803Z,986.78
2023-01-08T01:40:19.776Z,986.79
2023-01-08T01:41:19.787Z,986.79
2023-01-08T01:42:19.762Z,986.79
2023-01-08T01:43:19.750Z,986.69
2023-01-08T01:44:19.821Z,986.78
2023-01-08T01:45:19.736Z,986.67
2023-01-08T01:46:19.803Z,986.69
2023-01-08T01:47:19.715Z,986.67
2023-01-08T01:48:19.701Z,986.71
2023-01-08T01:49:19.705Z,986.75
2023-01-08T01:50:19.681Z,986.67
2023-01-08T01:51:19.720Z,986.81
2023-01-08T01:52:19.673Z,986.73
2023-01-08T01:53:19.658Z,986.70
2023-01-08T01:54:19.658Z,986.79
2023-01-08T01:55:19.651Z,986.71
2023-01-08T01:56:19.631Z,986.75
2023-01-08T01:57:19.683Z,986.65
2023-01-08T01:58:19.617Z,986.75
2023-01-08T01:59:19.615Z,986.73
2023-01-08T02:00:19.618Z,986.80
2023-01-08T02:01:19.744Z,986.72
2023-01-08T02:02:22.070Z,986.70
2023-01-08T02:03:20.581Z,986.77
2023-01-08T02:04:19.640Z,986.79
2023-01-08T02:05:19.562Z,986.81
2023-01-08T02:06:19.567Z,986.82
2023-01-08T02:07:19.582Z,986.74
2023-01-08T02:08:19.537Z,986.74
2023-01-08T02:09:19.538Z,986.79
2023-01-08T02:10:19.536Z,986.75
2023-01-08T02:11:19.519Z,986.81
2023-01-08T02:12:19.551Z,986.79
2023-01-08T02:13:19.515Z,986.76
2023-01-08T02:14:19.504Z,986.77
2023-01-08T02:15:19.498Z,986.75
2023-01-08T02:16:19.535Z,986.65
2023-01-08T02:17:19.582Z,986.68
2023-01-08T02:18:19.479Z,986.68
2023-01-08T02:19:19.471Z,986.72
2023-01-08T02:20:19.460Z,986.69
2023-01-08T02:21:19.454Z,986.65
2023-01-08T02:22:19.467Z,986.69
2023-01-08T02:23:19.436Z,986.74
2023-01-08T02:24:19.431Z,986.77
2023-01-08T02:25:19.434Z,986.77
2023-01-08T02:26:19.431Z,986.73
2023-01-08T02:27:19.437Z,986.67
2023-01-08T02:28:19.402Z,986.78
2023-01-08T02:29:19.400Z,986.67
2023-01-08T02:30:19.398Z,986.85
2023-01-08T02:31:19.508Z,986.74
2023-01-08T02:32:19.392Z,986.79
2023-01-08T02:33:19.363Z,986.76
2023-01-08T02:34:19.365Z,986.77
2023-01-08T02:35:19.358Z,986.73
2023-01-08T02:36:19.350Z,986.68
2023-01-08T02:37:19.361Z,986.65
2023-01-08T02:38:19.331Z,986.70
2023-01-08T02:39:19.409Z,986.63
2023-01-08T02:40:19.299Z,986.64
2023-01-08T02:41:19.292Z,986.56
2023-01-08T02:42:19.316Z,986.58
2023-01-08T02:43:19.281Z,986.53
2023-01-08T02:44:19.285Z,986.50
2023-01-08T02:45:19.268Z,986.55
2023-01-08T02:46:19.316Z,986.48
2023-01-08T02:47:19.276Z,986.50
2023-01-08T02:48:19.255Z,986.47
2023-01-08T02:49:19.344Z,986.41
2023-01-08T02:50:19.232Z,986.36
2023-01-08T02:51:19.228Z,986.44
2023-01-08T02:52:19.240Z,986.45
2023-01-08T02:53:19.206Z,986.45
2023-01-08T02:54:19.212Z,986.47
2023-01-08T02:55:19.194Z,986.41
2023-01-08T02:56:19.183Z,986.42
2023-01-08T02:57:19.209Z,986.43
2023-01-08T02:58:19.165Z,986.47
2023-01-08T02:59:19.265Z,986.40
2023-01-08T03:00:19.160Z,986.40
2023-01-08T03:01:19.229Z,986.47
2023-01-08T03:02:19.275Z,986.41
2023-01-08T03:03:19.132Z,986.48
2023-01-08T03:04:19.212Z,986.43
2023-01-08T03:05:19.193Z,986.45
2023-01-08T03:06:19.130Z,986.46
2023-01-08T03:07:19.127Z,986.45
2023-01-08T03:08:19.098Z,986.40
2023-01-08T03:09:19.088Z,986.37
2023-01-08T03:10:19.083Z,986.37
2023-01-08T03:11:19.081Z,986.41
2023-01-08T03:12:19.102Z,986.31
2023-01-08T03:13:19.056Z,986.32
2023-01-08T03:14:19.033Z,986.29
2023-01-08T03:15:20.036Z,986.23
2023-01-08T03:16:19.105Z,986.22
2023-01-08T03:17:19.064Z,986.17
2023-01-08T03:18:19.030Z,986.16
2023-01-08T03:19:19.028Z,986.17
2023-01-08T03:20:19.011Z,986.08
2023-01-08T03:21:19.069Z,986.12
2023-01-08T03:22:18.982Z,986.11
2023-01-08T03:23:19.081Z,986.09
2023-01-08T03:24:18.977Z,986.08
2023-01-08T03:25:18.971Z,986.01
2023-01-08T03:26:18.968Z,986.04
2023-01-08T03:27:18.960Z,986.11
2023-01-08T03:28:18.971Z,986.12
2023-01-08T03:29:18.974Z,986.05
2023-01-08T03:30:18.937Z,986.08
2023-01-08T03:31:18.939Z,985.94
2023-01-08T03:32:18.909Z,986.04
2023-01-08T03:33:18.935Z,986.01
2023-01-08T03:34:18.898Z,986.01
2023-01-08T03:35:18.887Z,986.01
2023-01-08T03:36:18.879Z,985.99
2023-01-08T03:37:18.950Z,985.98
2023-01-08T03:38:18.897Z,985.94
2023-01-08T03:39:18.910Z,985.92
2023-01-08T03:40:18.852Z,985.92
2023-01-08T03:41:18.846Z,985.88
2023-01-08T03:42:18.834Z,985.85
2023-01-08T03:43:18.850Z,985.86
2023-01-08T03:44:18.824Z,985.87
2023-01-08T03:45:19.832Z,985.84
2023-01-08T03:46:18.876Z,985.82
2023-01-08T03:47:18.799Z,985.80
2023-01-08T03:48:18.812Z,985.78
2023-01-08T03:49:18.790Z,985.73
2023-01-08T03:50:18.771Z,985.77
2023-01-08T03:51:18.772Z,985.68
2023-01-08T03:52:18.765Z,985.79
2023-01-08T03:53:18.844Z,985.64
2023-01-08T03:54:19.815Z,985.63
2023-01-08T03:55:18.753Z,985.63
2023-01-08T03:56:18.746Z,985.63
2023-01-08T03:57:18.716Z,985.68
2023-01-08T03:58:18.742Z,985.63
2023-01-08T03:59:18.731Z,985.64
2023-01-08T04:00:18.694Z,985.68
2023-01-08T04:01:18.801Z,985.67
2023-01-08T04:02:18.786Z,985.61
2023-01-08T04:03:18.667Z,985.62
2023-01-08T04:04:18.751Z,985.60
2023-01-08T04:05:18.657Z,985.61
2023-01-08T04:06:18.664Z,985.57
2023-01-08T04:07:18.642Z,985.43
2023-01-08T04:08:18.632Z,985.46
2023-01-08T04:09:18.735Z,985.46
2023-01-08T04:10:18.613Z,985.51
2023-01-08T04:11:18.607Z,985.50
2023-01-08T04:12:18.607Z,985.44
2023-01-08T04:13:18.619Z,985.46
2023-01-08T04:14:18.604Z,985.50
2023-01-08T04:15:19.581Z,985.47
2023-01-08T04:16:18.620Z,985.43
2023-01-08T04:17:18.561Z,985.46
2023-01-08T04:18:18.550Z,985.40
2023-01-08T04:19:18.587Z,985.43
2023-01-08T04:20:18.543Z,985.41
2023-01-08T04:21:18.537Z,985.37
2023-01-08T04:22:18.519Z,985.47
2023-01-08T04:23:18.519Z,985.43
2023-01-08T04:24:18.523Z,985.48
2023-01-08T04:25:18.498Z,985.45
2023-01-08T04:26:18.495Z,985.42
2023-01-08T04:27:18.476Z,985.32
2023-01-08T04:28:19.483Z,985.41
2023-01-08T04:29:50.407Z,985.37
2023-01-08T04:30:18.453Z,985.43
2023-01-08T04:31:18.518Z,985.41
2023-01-08T04:32:18.437Z,985.43
2023-01-08T04:33:18.465Z,985.43
2023-01-08T04:34:18.450Z,985.43
2023-01-08T04:35:18.425Z,985.39
2023-01-08T04:36:18.437Z,985.44
2023-01-08T04:37:18.405Z,985.39
2023-01-08T04:38:18.407Z,985.41
2023-01-08T04:39:18.412Z,985.43
2023-01-08T04:40:18.405Z,985.46
2023-01-08T04:41:18.479Z,985.38
2023-01-08T04:42:18.362Z,985.33
2023-01-08T04:43:18.351Z,985.42
2023-01-08T04:44:18.377Z,985.26
2023-01-08T04:45:18.346Z,985.30
2023-01-08T04:46:18.379Z,985.42
2023-01-08T04:47:18.353Z,985.53
2023-01-08T04:48:18.325Z,985.44
2023-01-08T04:49:18.343Z,985.45
2023-01-08T04:50:18.303Z,985.42
2023-01-08T04:51:18.296Z,985.49
2023-01-08T04:52:18.295Z,985.41
2023-01-08T04:53:18.271Z,985.46
2023-01-08T04:54:18.300Z,985.39
2023-01-08T04:55:18.264Z,985.35
2023-01-08T04:56:18.263Z,985.34
2023-01-08T04:57:18.244Z,985.19
2023-01-08T04:58:18.246Z,985.28
2023-01-08T04:59:18.251Z,985.27
2023-01-08T05:00:18.238Z,985.25
2023-01-08T05:01:18.346Z,985.23
2023-01-08T05:02:18.356Z,985.18
2023-01-08T05:03:18.282Z,985.18
2023-01-08T05:04:18.217Z,985.18
2023-01-08T05:05:18.201Z,985.20
2023-01-08T05:06:18.189Z,985.22
2023-01-08T05:07:18.177Z,985.17
2023-01-08T05:08:18.161Z,985.16
2023-01-08T05:09:18.182Z,985.12
2023-01-08T05:10:18.207Z,985.15
2023-01-08T05:11:18.144Z,985.17
2023-01-08T05:12:18.133Z,985.18
2023-01-08T05:13:18.200Z,985.19
2023-01-08T05:14:18.139Z,985.16
2023-01-08T05:15:18.114Z,985.21
2023-01-08T05:16:18.141Z,985.21
2023-01-08T05:17:18.103Z,985.19
2023-01-08T05:18:18.111Z,985.07
2023-01-08T05:19:18.082Z,985.18
2023-01-08T05:20:19.146Z,985.10
2023-01-08T05:21:19.083Z,985.04
2023-01-08T05:22:18.058Z,985.10
2023-01-08T05:23:18.051Z,985.11
2023-01-08T05:24:18.048Z,985.13
2023-01-08T05:25:18.056Z,985.07
2023-01-08T05:26:18.025Z,985.01
2023-01-08T05:27:18.041Z,985.02
2023-01-08T05:28:18.025Z,985.02
2023-01-08T05:29:18.084Z,985.00
2023-01-08T05:30:18.038Z,985.02
2023-01-08T05:31:18.064Z,984.95
2023-01-08T05:32:17.985Z,984.90
2023-01-08T05:33:17.984Z,984.94
2023-01-08T05:34:17.967Z,984.95
2023-01-08T05:35:17.978Z,984.91
2023-01-08T05:36:17.959Z,984.89
2023-01-08T05:37:17.951Z,984.84
2023-01-08T05:38:17.935Z,984.88
2023-01-08T05:39:17.938Z,984.89
2023-01-08T05:40:17.957Z,984.78
2023-01-08T05:41:17.921Z,984.78
2023-01-08T05:42:17.958Z,984.85
2023-01-08T05:43:17.902Z,984.89
2023-01-08T05:44:17.890Z,984.87
2023-01-08T05:45:18.020Z,984.88
2023-01-08T05:46:17.952Z,984.81
2023-01-08T05:47:17.876Z,984.81
2023-01-08T05:48:17.877Z,984.82
2023-01-08T05:49:17.856Z,984.77
2023-01-08T05:50:17.871Z,984.72
2023-01-08T05:51:17.851Z,984.67
2023-01-08T05:52:17.834Z,984.68
2023-01-08T05:53:17.830Z,984.66
2023-01-08T05:54:17.845Z,984.68
2023-01-08T05:55:17.811Z,984.67
2023-01-08T05:56:17.798Z,984.60
2023-01-08T05:57:17.817Z,984.68
2023-01-08T05:58:17.786Z,984.71
2023-01-08T05:59:17.804Z,984.63
2023-01-08T06:00:17.777Z,984.54
2023-01-08T06:01:17.921Z,984.65
2023-01-08T06:02:17.762Z,984.68
2023-01-08T06:03:17.776Z,984.70
2023-01-08T06:04:18.176Z,984.64
2023-01-08T06:05:17.729Z,984.68
2023-01-08T06:06:17.735Z,984.64
2023-01-08T06:07:17.714Z,984.67
2023-01-08T06:08:17.696Z,984.72
2023-01-08T06:09:17.728Z,984.77
2023-01-08T06:10:17.704Z,984.74
2023-01-08T06:11:17.675Z,984.79
2023-01-08T06:12:17.673Z,984.78
2023-01-08T06:13:17.665Z,984.81
2023-01-08T06:14:17.653Z,984.77
2023-01-08T06:15:17.687Z,984.78
2023-01-08T06:16:17.751Z,984.79
2023-01-08T06:17:18.708Z,984.74
2023-01-08T06:18:17.625Z,984.78
2023-01-08T06:19:17.616Z,984.80
2023-01-08T06:20:17.644Z,984.77
2023-01-08T06:21:17.606Z,984.78
2023-01-08T06:22:17.607Z,984.76
2023-01-08T06:23:17.583Z,984.82
2023-01-08T06:24:17.578Z,984.72
2023-01-08T06:25:17.596Z,984.77
2023-01-08T06:26:17.563Z,984.84
2023-01-08T06:27:17.557Z,984.82
2023-01-08T06:28:17.547Z,984.83
2023-01-08T06:29:17.540Z,984.80
2023-01-08T06:30:17.560Z,984.82
2023-01-08T06:31:17.529Z,984.84
2023-01-08T06:32:17.523Z,984.82
2023-01-08T06:33:19.596Z,984.86
2023-01-08T06:34:17.502Z,984.86
2023-01-08T06:35:17.526Z,984.86
2023-01-08T06:36:17.500Z,984.86
2023-01-08T06:37:17.490Z,984.82
2023-01-08T06:38:17.473Z,984.83
2023-01-08T06:39:17.464Z,984.81
2023-01-08T06:40:17.480Z,984.85
2023-01-08T06:41:17.450Z,984.86
2023-01-08T06:42:17.443Z,984.86
2023-01-08T06:43:17.453Z,984.86
2023-01-08T06:44:17.435Z,984.84
2023-01-08T06:45:17.458Z,984.83
2023-01-08T06:46:17.439Z,984.84
2023-01-08T06:47:17.406Z,984.86
2023-01-08T06:48:17.390Z,984.86
2023-01-08T06:49:17.487Z,984.90
2023-01-08T06:50:17.412Z,984.88
2023-01-08T06:51:17.392Z,984.88
2023-01-08T06:52:17.368Z,984.85
2023-01-08T06:53:17.355Z,984.89
2023-01-08T06:54:17.355Z,984.88
2023-01-08T06:55:17.372Z,984.89
2023-01-08T06:56:17.339Z,984.94
2023-01-08T06:57:17.328Z,984.89
2023-01-08T06:58:17.315Z,984.85
2023-01-08T06:59:17.308Z,984.84
2023-01-08T07:00:17.325Z,984.90
2023-01-08T07:01:17.473Z,984.89
2023-01-08T07:02:17.420Z,984.88
2023-01-08T07:03:17.282Z,984.87
2023-01-08T07:04:17.337Z,984.85
2023-01-08T07:05:17.363Z,984.86
2023-01-08T07:06:17.262Z,984.87
2023-01-08T07:07:17.253Z,984.76
2023-01-08T07:08:17.238Z,984.90
2023-01-08T07:09:17.241Z,984.90
2023-01-08T07:10:19.774Z,984.86
2023-01-08T07:11:17.218Z,984.90
2023-01-08T07:12:17.216Z,984.90
2023-01-08T07:13:17.200Z,984.90
2023-01-08T07:14:17.200Z,984.91
2023-01-08T07:15:17.217Z,984.86
2023-01-08T07:16:17.231Z,984.93
2023-01-08T07:17:17.166Z,984.97
2023-01-08T07:18:17.161Z,984.94
2023-01-08T07:19:17.153Z,984.93
2023-01-08T07:20:17.164Z,984.97
2023-01-08T07:21:17.228Z,984.96
2023-01-08T07:22:17.129Z,984.91
2023-01-08T07:23:17.121Z,984.93
2023-01-08T07:24:17.107Z,984.93
2023-01-08T07:25:17.123Z,984.86
2023-01-08T07:26:17.094Z,984.94
2023-01-08T07:27:17.087Z,984.96
2023-01-08T07:28:17.095Z,984.92
2023-01-08T07:29:17.091Z,984.97
2023-01-08T07:30:28.634Z,984.97
2023-01-08T07:31:19.121Z,984.96
2023-01-08T07:32:17.059Z,984.94
2023-01-08T07:33:17.056Z,984.89
2023-01-08T07:34:17.041Z,984.86
2023-01-08T07:35:17.062Z,984.92
2023-01-08T07:36:17.030Z,984.90
2023-01-08T07:37:17.098Z,984.91
2023-01-08T07:38:17.006Z,984.87
2023-01-08T07:39:16.998Z,984.92
2023-01-08T07:40:17.029Z,984.94
2023-01-08T07:41:16.991Z,984.93
2023-01-08T07:42:16.985Z,984.91
2023-01-08T07:43:16.979Z,984.89
2023-01-08T07:44:16.964Z,984.94
2023-01-08T07:45:16.973Z,984.95
2023-01-08T07:46:17.005Z,984.98
2023-01-08T07:47:16.931Z,984.99
2023-01-08T07:48:16.929Z,984.96
2023-01-08T07:49:16.925Z,984.98
2023-01-08T07:50:16.938Z,984.98
2023-01-08T07:51:16.916Z,984.97
2023-01-08T07:52:16.904Z,984.90
2023-01-08T07:53:16.968Z,984.94
2023-01-08T07:54:16.884Z,984.90
2023-01-08T07:55:16.905Z,984.93
2023-01-08T07:56:16.864Z,984.83
2023-01-08T07:57:16.863Z,984.85
2023-01-08T07:58:16.867Z,984.86
2023-01-08T07:59:16.850Z,984.80
2023-01-08T08:00:16.868Z,984.86
2023-01-08T08:01:16.893Z,984.79
2023-01-08T08:02:16.957Z,984.84
2023-01-08T08:03:16.855Z,984.81
2023-01-08T08:04:16.826Z,984.77
2023-01-08T08:05:16.827Z,984.81
2023-01-08T08:06:16.801Z,984.84
2023-01-08T08:07:16.777Z,984.85
2023-01-08T08:08:16.776Z,984.78
2023-01-08T08:09:16.844Z,984.88
2023-01-08T08:10:16.784Z,984.78
2023-01-08T08:11:16.748Z,984.76
2023-01-08T08:12:16.740Z,984.80
2023-01-08T08:13:16.737Z,984.73
2023-01-08T08:14:16.752Z,984.72
2023-01-08T08:15:16.745Z,984.77
2023-01-08T08:16:16.746Z,984.78
2023-01-08T08:17:16.710Z,984.78
2023-01-08T08:18:16.699Z,984.79
2023-01-08T08:19:16.685Z,984.78
2023-01-08T08:20:16.717Z,984.79
2023-01-08T08:21:16.667Z,984.84
2023-01-08T08:22:16.666Z,984.73
2023-01-08T08:23:16.657Z,984.78
2023-01-08T08:24:16.667Z,984.82
2023-01-08T08:25:16.751Z,984.81
2023-01-08T08:26:16.645Z,984.84
2023-01-08T08:27:16.634Z,984.73
2023-01-08T08:28:16.681Z,984.75
2023-01-08T08:29:16.616Z,984.69
2023-01-08T08:30:16.624Z,984.79
2023-01-08T08:31:16.682Z,984.81
2023-01-08T08:32:16.593Z,984.79
2023-01-08T08:33:16.581Z,984.81
2023-01-08T08:34:16.602Z,984.84
2023-01-08T08:35:16.597Z,984.74
2023-01-08T08:36:16.561Z,984.76
2023-01-08T08:37:16.553Z,984.76
2023-01-08T08:38:16.549Z,984.72
2023-01-08T08:39:16.539Z,984.67
2023-01-08T08:40:16.557Z,984.73
2023-01-08T08:41:16.595Z,984.69
2023-01-08T08:42:16.520Z,984.75
2023-01-08T08:43:16.508Z,984.63
2023-01-08T08:44:16.507Z,984.74
2023-01-08T08:45:16.543Z,984.76
2023-01-08T08:46:16.528Z,984.69
2023-01-08T08:47:16.476Z,984.72
2023-01-08T08:48:16.466Z,984.75
2023-01-08T08:49:16.463Z,984.73
2023-01-08T08:50:16.524Z,984.71
2023-01-08T08:51:16.445Z,984.81
2023-01-08T08:52:16.442Z,984.76
2023-01-08T08:53:16.429Z,984.84
2023-01-08T08:54:16.422Z,984.91
2023-01-08T08:55:16.452Z,984.86
2023-01-08T08:56:16.420Z,984.82
2023-01-08T08:57:16.469Z,984.81
2023-01-08T08:58:16.393Z,984.82
2023-01-08T08:59:16.391Z,984.81
2023-01-08T09:00:16.438Z,984.80
2023-01-08T09:01:16.513Z,984.74
2023-01-08T09:02:16.621Z,984.74
2023-01-08T09:03:16.459Z,984.70
2023-01-08T09:04:16.349Z,984.67
2023-01-08T09:05:16.369Z,984.61
2023-01-08T09:06:16.338Z,984.58
2023-01-08T09:07:16.345Z,984.60
2023-01-08T09:08:16.320Z,984.56
2023-01-08T09:09:16.315Z,984.59
2023-01-08T09:10:16.353Z,984.67
2023-01-08T09:11:16.302Z,984.66
2023-01-08T09:12:16.282Z,984.64
2023-01-08T09:13:16.371Z,984.65
2023-01-08T09:14:16.276Z,984.68
2023-01-08T09:15:16.295Z,984.68
2023-01-08T09:16:16.277Z,984.69
2023-01-08T09:17:16.248Z,984.73
2023-01-08T09:18:16.252Z,984.69
2023-01-08T09:19:16.253Z,984.72
2023-01-08T09:20:16.229Z,984.75
2023-01-08T09:21:16.252Z,984.77
2023-01-08T09:22:16.215Z,984.70
2023-01-08T09:23:16.209Z,984.74
2023-01-08T09:24:16.215Z,984.80
2023-01-08T09:25:16.196Z,984.74
2023-01-08T09:26:16.231Z,984.69
2023-01-08T09:27:16.174Z,984.76
2023-01-08T09:28:16.171Z,984.68
2023-01-08T09:29:16.237Z,984.74
2023-01-08T09:30:16.144Z,984.77
2023-01-08T09:31:16.219Z,984.82
2023-01-08T09:32:16.138Z,984.82
2023-01-08T09:33:16.157Z,984.74
2023-01-08T09:34:16.117Z,984.82
2023-01-08T09:35:16.112Z,984.90
2023-01-08T09:36:16.129Z,984.87
2023-01-08T09:37:16.108Z,984.89
2023-01-08T09:38:16.100Z,984.91
2023-01-08T09:39:16.088Z,984.82
2023-01-08T09:40:16.080Z,984.82
2023-01-08T09:41:16.088Z,984.82
2023-01-08T09:42:16.067Z,984.77
2023-01-08T09:43:16.058Z,984.76
2023-01-08T09:44:16.085Z,984.78
2023-01-08T09:45:16.126Z,984.75
2023-01-08T09:46:16.102Z,984.73
2023-01-08T09:47:16.026Z,984.69
2023-01-08T09:48:16.085Z,984.81
2023-01-08T09:49:16.005Z,984.79
2023-01-08T09:50:18.255Z,984.76
2023-01-08T09:51:16.124Z,984.80
2023-01-08T09:52:16.094Z,984.83
2023-01-08T09:53:16.019Z,984.77
2023-01-08T09:54:16.028Z,984.87
2023-01-08T09:55:16.003Z,984.78
2023-01-08T09:56:16.713Z,984.78
2023-01-08T09:57:15.999Z,984.76
2023-01-08T09:58:16.002Z,984.74
2023-01-08T09:59:16.005Z,984.68
2023-01-08T10:00:15.989Z,984.71
2023-01-08T10:01:16.269Z,984.80
2023-01-08T10:02:16.306Z,984.79
2023-01-08T10:03:15.952Z,984.72
2023-01-08T10:04:16.013Z,984.74
2023-01-08T10:05:16.025Z,984.71
2023-01-08T10:06:15.988Z,984.67
2023-01-08T10:07:16.076Z,984.65
2023-01-08T10:08:16.130Z,984.63
2023-01-08T10:09:16.046Z,984.60
2023-01-08T10:10:15.970Z,984.63
2023-01-08T10:11:15.911Z,984.62
2023-01-08T10:12:15.892Z,984.60
2023-01-08T10:13:15.865Z,984.62
2023-01-08T10:14:15.919Z,984.63
2023-01-08T10:15:15.871Z,984.53
2023-01-08T10:16:15.929Z,984.52
2023-01-08T10:17:16.021Z,984.55
2023-01-08T10:18:15.926Z,984.47
2023-01-08T10:19:15.851Z,984.49
2023-01-08T10:20:15.854Z,984.41
2023-01-08T10:21:16.137Z,984.43
2023-01-08T10:22:15.859Z,984.43
2023-01-08T10:23:15.849Z,984.45
2023-01-08T10:24:15.929Z,984.41
2023-01-08T10:25:15.851Z,984.36
2023-01-08T10:26:15.782Z,984.40
2023-01-08T10:27:15.996Z,984.36
2023-01-08T10:28:15.813Z,984.39
2023-01-08T10:29:16.000Z,984.35
2023-01-08T10:30:50.718Z,984.38
2023-01-08T10:31:15.728Z,984.31
2023-01-08T10:32:15.729Z,984.24
2023-01-08T10:33:15.679Z,984.22
2023-01-08T10:34:15.766Z,984.27
2023-01-08T10:35:15.766Z,984.26
2023-01-08T10:36:15.703Z,984.24
2023-01-08T10:37:15.663Z,984.22
2023-01-08T10:38:15.635Z,984.20
2023-01-08T10:39:15.829Z,984.22
2023-01-08T10:40:15.619Z,984.18
2023-01-08T10:41:15.610Z,984.18
2023-01-08T10:42:16.708Z,984.19
2023-01-08T10:43:15.614Z,984.14
2023-01-08T10:44:15.585Z,984.23
2023-01-08T10:45:15.579Z,984.21
2023-01-08T10:46:15.608Z,984.14
2023-01-08T10:47:15.618Z,984.23
2023-01-08T10:48:15.645Z,984.21
2023-01-08T10:49:15.608Z,984.29
2023-01-08T10:50:15.550Z,984.24
2023-01-08T10:51:15.544Z,984.23
2023-01-08T10:52:15.622Z,984.14
2023-01-08T10:53:15.572Z,984.24
2023-01-08T10:54:15.536Z,984.19
2023-01-08T10:55:15.591Z,984.18
2023-01-08T10:56:15.693Z,984.15
2023-01-08T10:57:15.959Z,984.17
2023-01-08T10:58:15.531Z,984.14
2023-01-08T10:59:15.518Z,984.11
2023-01-08T11:00:15.510Z,984.07
2023-01-08T11:01:15.580Z,984.10
2023-01-08T11:02:15.545Z,984.10
2023-01-08T11:03:15.472Z,984.12
2023-01-08T11:04:15.499Z,984.10
2023-01-08T11:05:15.463Z,984.07
2023-01-08T11:06:15.497Z,984.06
2023-01-08T11:07:15.481Z,984.05
2023-01-08T11:08:15.412Z,984.03
2023-01-08T11:09:15.433Z,984.00
2023-01-08T11:10:15.436Z,984.00
2023-01-08T11:11:15.619Z,983.99
2023-01-08T11:12:15.445Z,984.01
2023-01-08T11:13:15.391Z,983.88
2023-01-08T11:14:15.468Z,983.88
2023-01-08T11:15:15.483Z,983.90
2023-01-08T11:16:15.377Z,983.89
2023-01-08T11:17:15.405Z,983.97
2023-01-08T11:18:15.366Z,983.89
2023-01-08T11:19:15.357Z,983.87
2023-01-08T11:20:15.375Z,983.87
2023-01-08T11:21:15.359Z,983.96
2023-01-08T11:22:15.454Z,983.90
2023-01-08T11:23:15.316Z,983.94
2023-01-08T11:24:15.318Z,983.94
2023-01-08T11:25:15.305Z,983.97
2023-01-08T11:26:15.289Z,983.91
2023-01-08T11:27:15.313Z,983.93
2023-01-08T11:28:15.428Z,983.93
2023-01-08T11:29:15.260Z,983.86
2023-01-08T11:30:15.263Z,983.84
2023-01-08T11:31:15.332Z,983.87
2023-01-08T11:32:15.264Z,983.85
2023-01-08T11:33:15.229Z,983.71
2023-01-08T11:34:15.224Z,983.72
2023-01-08T11:35:15.207Z,983.68
2023-01-08T11:36:15.190Z,983.72
2023-01-08T11:37:15.221Z,983.65
2023-01-08T11:38:15.177Z,983.66
2023-01-08T11:39:15.197Z,983.61
2023-01-08T11:40:15.207Z,983.73
2023-01-08T11:41:15.223Z,983.63
2023-01-08T11:42:15.202Z,983.61
2023-01-08T11:43:15.164Z,983.63
2023-01-08T11:44:15.147Z,983.64
2023-01-08T11:45:15.140Z,983.70
2023-01-08T11:46:15.132Z,983.72
2023-01-08T11:47:15.146Z,983.68
2023-01-08T11:48:15.114Z,983.64
2023-01-08T11:49:15.112Z,983.71
2023-01-08T11:50:15.118Z,983.68
2023-01-08T11:51:15.110Z,983.68
2023-01-08T11:52:15.100Z,983.64
2023-01-08T11:53:15.080Z,983.66
2023-01-08T11:54:15.057Z,983.66
2023-01-08T11:55:15.059Z,983.64
2023-01-08T11:56:15.077Z,983.68
2023-01-08T11:57:15.092Z,983.59
2023-01-08T11:58:15.066Z,983.56
2023-01-08T11:59:15.036Z,983.49
2023-01-08T12:00:15.014Z,983.47
2023-01-08T12:01:15.055Z,983.54
2023-01-08T12:02:15.041Z,983.51
2023-01-08T12:03:15.074Z,983.53
2023-01-08T12:04:15.014Z,983.42
2023-01-08T12:05:14.970Z,983.43
2023-01-08T12:06:15.046Z,983.35
2023-01-08T12:07:14.980Z,983.19
2023-01-08T12:08:14.973Z,983.19
2023-01-08T12:09:14.964Z,983.13
2023-01-08T12:10:14.938Z,983.13
2023-01-08T12:11:14.957Z,983.12
2023-01-08T12:12:15.212Z,983.06
2023-01-08T12:13:15.914Z,983.06
2023-01-08T12:14:14.912Z,982.97
2023-01-08T12:15:14.915Z,982.99
2023-01-08T12:16:14.925Z,982.92
2023-01-08T12:17:14.915Z,982.94
2023-01-08T12:18:14.880Z,982.96
2023-01-08T12:19:14.871Z,983.00
2023-01-08T12:20:14.863Z,982.98
2023-01-08T12:21:14.845Z,983.04
2023-01-08T12:22:14.885Z,982.98
2023-01-08T12:23:14.861Z,983.02
2023-01-08T12:24:14.846Z,983.00
2023-01-08T12:25:14.830Z,983.01
2023-01-08T12:26:14.812Z,983.01
2023-01-08T12:27:14.843Z,983.04
2023-01-08T12:28:14.813Z,983.04